sensor_id;sensor_type;location;lat;lon;timestamp;P1;durP1;ratioP1;P2;durP2;ratioP2
74059;SDS011;62414;53.436;8.828;2022-11-11T00:00:32;13.87;;;3.50;;
74059;SDS011;62414;53.436;8.828;2022-11-11T00:03:17;11.82;;;3.00;;
74059;SDS011;62414;53.436;8.828;2022-11-11T00:06:01;10.43;;;3.00;;
74059;SDS011;62414;53.436;8.828;2022-11-11T00:08:46;13.80;;;3.42;;
74059;SDS011;62414;53.436;8.828;2022-11-11T00:11:30;10.50;;;3.45;;
74059;SDS011;62414;53.436;8.828;2022-11-11T00:14:15;13.17;;;3.60;;
74059;SDS011;62414;53.436;8.828;2022-11-11T00:17:00;12.40;;;3.70;;
74059;SDS011;62414;53.436;8.828;2022-11-11T00:19:43;11.35;;;3.40;;
74059;SDS011;62414;53.436;8.828;2022-11-11T00:22:27;11.27;;;3.70;;
74059;SDS011;62414;53.436;8.828;2022-11-11T00:25:12;10.65;;;3.30;;
74059;SDS011;62414;53.436;8.828;2022-11-11T00:27:58;13.00;;;3.43;;
74059;SDS011;62414;53.436;8.828;2022-11-11T00:30:42;10.63;;;3.45;;
74059;SDS011;62414;53.436;8.828;2022-11-11T00:33:28;11.73;;;3.67;;
74059;SDS011;62414;53.436;8.828;2022-11-11T00:36:12;13.07;;;3.95;;
74059;SDS011;62414;53.436;8.828;2022-11-11T00:38:56;11.95;;;3.83;;
74059;SDS011;62414;53.436;8.828;2022-11-11T00:41:39;10.60;;;3.70;;
74059;SDS011;62414;53.436;8.828;2022-11-11T00:44:23;10.93;;;4.20;;
74059;SDS011;62414;53.436;8.828;2022-11-11T00:47:07;16.15;;;4.65;;
74059;SDS011;62414;53.436;8.828;2022-11-11T00:49:53;12.95;;;3.97;;
74059;SDS011;62414;53.436;8.828;2022-11-11T00:52:37;15.02;;;4.10;;
74059;SDS011;62414;53.436;8.828;2022-11-11T00:55:21;11.33;;;4.20;;
74059;SDS011;62414;53.436;8.828;2022-11-11T00:58:05;13.70;;;4.13;;
74059;SDS011;62414;53.436;8.828;2022-11-11T01:00:49;11.70;;;4.30;;
74059;SDS011;62414;53.436;8.828;2022-11-11T01:03:33;13.70;;;4.70;;
74059;SDS011;62414;53.436;8.828;2022-11-11T01:06:18;11.40;;;4.45;;
74059;SDS011;62414;53.436;8.828;2022-11-11T01:09:03;14.87;;;5.10;;
74059;SDS011;62414;53.436;8.828;2022-11-11T01:11:47;12.32;;;4.90;;
74059;SDS011;62414;53.436;8.828;2022-11-11T01:14:31;13.48;;;4.72;;
74059;SDS011;62414;53.436;8.828;2022-11-11T01:17:15;11.57;;;4.20;;
74059;SDS011;62414;53.436;8.828;2022-11-11T01:19:59;11.32;;;4.43;;
74059;SDS011;62414;53.436;8.828;2022-11-11T01:22:44;12.83;;;4.80;;
74059;SDS011;62414;53.436;8.828;2022-11-11T01:25:28;13.85;;;4.70;;
74059;SDS011;62414;53.436;8.828;2022-11-11T01:28:12;12.15;;;4.43;;
74059;SDS011;62414;53.436;8.828;2022-11-11T01:30:59;12.23;;;4.65;;
74059;SDS011;62414;53.436;8.828;2022-11-11T01:33:44;12.38;;;4.90;;
74059;SDS011;62414;53.436;8.828;2022-11-11T01:36:28;16.50;;;5.10;;
74059;SDS011;62414;53.436;8.828;2022-11-11T01:39:14;10.10;;;4.53;;
74059;SDS011;62414;53.436;8.828;2022-11-11T01:41:58;13.57;;;4.70;;
74059;SDS011;62414;53.436;8.828;2022-11-11T01:44:43;11.52;;;4.32;;
74059;SDS011;62414;53.436;8.828;2022-11-11T01:47:29;10.95;;;4.38;;
74059;SDS011;62414;53.436;8.828;2022-11-11T01:50:14;13.63;;;4.70;;
74059;SDS011;62414;53.436;8.828;2022-11-11T01:52:58;13.48;;;4.53;;
74059;SDS011;62414;53.436;8.828;2022-11-11T01:55:43;11.40;;;4.30;;
74059;SDS011;62414;53.436;8.828;2022-11-11T01:58:27;12.23;;;4.38;;
74059;SDS011;62414;53.436;8.828;2022-11-11T02:01:12;13.57;;;4.25;;
74059;SDS011;62414;53.436;8.828;2022-11-11T02:03:56;13.07;;;4.80;;
74059;SDS011;62414;53.436;8.828;2022-11-11T02:06:43;13.80;;;4.63;;
74059;SDS011;62414;53.436;8.828;2022-11-11T02:09:27;12.68;;;4.43;;
74059;SDS011;62414;53.436;8.828;2022-11-11T02:12:13;14.93;;;4.93;;
74059;SDS011;62414;53.436;8.828;2022-11-11T02:14:57;13.30;;;4.60;;
74059;SDS011;62414;53.436;8.828;2022-11-11T02:17:43;11.93;;;4.40;;
74059;SDS011;62414;53.436;8.828;2022-11-11T02:20:32;13.88;;;4.40;;
74059;SDS011;62414;53.436;8.828;2022-11-11T02:23:21;13.75;;;5.00;;
74059;SDS011;62414;53.436;8.828;2022-11-11T02:26:11;15.15;;;5.20;;
74059;SDS011;62414;53.436;8.828;2022-11-11T02:28:59;12.20;;;5.03;;
74059;SDS011;62414;53.436;8.828;2022-11-11T02:31:45;15.53;;;5.00;;
74059;SDS011;62414;53.436;8.828;2022-11-11T02:34:30;13.30;;;5.10;;
74059;SDS011;62414;53.436;8.828;2022-11-11T02:37:18;14.10;;;5.30;;
74059;SDS011;62414;53.436;8.828;2022-11-11T02:40:03;14.80;;;5.30;;
74059;SDS011;62414;53.436;8.828;2022-11-11T02:42:50;15.25;;;5.82;;
74059;SDS011;62414;53.436;8.828;2022-11-11T02:45:34;14.43;;;5.90;;
74059;SDS011;62414;53.436;8.828;2022-11-11T02:48:18;15.82;;;5.80;;
74059;SDS011;62414;53.436;8.828;2022-11-11T02:51:02;12.95;;;5.18;;
74059;SDS011;62414;53.436;8.828;2022-11-11T02:53:46;13.88;;;5.30;;
74059;SDS011;62414;53.436;8.828;2022-11-11T02:56:30;13.57;;;5.32;;
74059;SDS011;62414;53.436;8.828;2022-11-11T02:59:16;13.93;;;5.50;;
74059;SDS011;62414;53.436;8.828;2022-11-11T03:02:00;19.27;;;5.90;;
74059;SDS011;62414;53.436;8.828;2022-11-11T03:04:44;15.38;;;6.05;;
74059;SDS011;62414;53.436;8.828;2022-11-11T03:07:28;14.68;;;5.90;;
74059;SDS011;62414;53.436;8.828;2022-11-11T03:10:12;13.50;;;5.78;;
74059;SDS011;62414;53.436;8.828;2022-11-11T03:12:56;17.37;;;5.93;;
74059;SDS011;62414;53.436;8.828;2022-11-11T03:15:42;14.80;;;5.78;;
74059;SDS011;62414;53.436;8.828;2022-11-11T03:18:26;13.98;;;5.93;;
74059;SDS011;62414;53.436;8.828;2022-11-11T03:21:10;18.15;;;6.30;;
74059;SDS011;62414;53.436;8.828;2022-11-11T03:23:54;17.90;;;6.10;;
74059;SDS011;62414;53.436;8.828;2022-11-11T03:26:37;19.80;;;6.33;;
74059;SDS011;62414;53.436;8.828;2022-11-11T03:29:21;14.60;;;6.35;;
74059;SDS011;62414;53.436;8.828;2022-11-11T03:32:07;17.55;;;6.57;;
74059;SDS011;62414;53.436;8.828;2022-11-11T03:34:51;18.92;;;7.20;;
74059;SDS011;62414;53.436;8.828;2022-11-11T03:37:35;17.60;;;6.47;;
74059;SDS011;62414;53.436;8.828;2022-11-11T03:40:19;17.77;;;6.70;;
74059;SDS011;62414;53.436;8.828;2022-11-11T03:43:03;18.05;;;7.10;;
74059;SDS011;62414;53.436;8.828;2022-11-11T03:45:48;18.08;;;6.50;;
74059;SDS011;62414;53.436;8.828;2022-11-11T03:48:34;14.02;;;6.57;;
74059;SDS011;62414;53.436;8.828;2022-11-11T03:51:18;20.92;;;7.07;;
74059;SDS011;62414;53.436;8.828;2022-11-11T03:54:02;19.97;;;7.07;;
74059;SDS011;62414;53.436;8.828;2022-11-11T03:56:46;20.15;;;7.15;;
74059;SDS011;62414;53.436;8.828;2022-11-11T03:59:30;17.88;;;7.20;;
74059;SDS011;62414;53.436;8.828;2022-11-11T04:02:14;20.35;;;7.50;;
74059;SDS011;62414;53.436;8.828;2022-11-11T04:04:59;18.50;;;7.10;;
74059;SDS011;62414;53.436;8.828;2022-11-11T04:07:43;17.90;;;7.20;;
74059;SDS011;62414;53.436;8.828;2022-11-11T04:10:28;21.55;;;7.65;;
74059;SDS011;62414;53.436;8.828;2022-11-11T04:13:13;18.48;;;7.93;;
74059;SDS011;62414;53.436;8.828;2022-11-11T04:15:57;19.75;;;7.43;;
74059;SDS011;62414;53.436;8.828;2022-11-11T04:18:41;20.13;;;7.97;;
74059;SDS011;62414;53.436;8.828;2022-11-11T04:21:26;18.20;;;7.30;;
74059;SDS011;62414;53.436;8.828;2022-11-11T04:24:11;19.58;;;7.90;;
74059;SDS011;62414;53.436;8.828;2022-11-11T04:26:56;18.85;;;8.20;;
74059;SDS011;62414;53.436;8.828;2022-11-11T04:29:42;20.35;;;7.72;;
74059;SDS011;62414;53.436;8.828;2022-11-11T04:32:26;20.02;;;8.15;;
74059;SDS011;62414;53.436;8.828;2022-11-11T04:35:11;19.57;;;8.20;;
74059;SDS011;62414;53.436;8.828;2022-11-11T04:37:56;21.42;;;8.02;;
74059;SDS011;62414;53.436;8.828;2022-11-11T04:40:40;16.65;;;8.02;;
74059;SDS011;62414;53.436;8.828;2022-11-11T04:43:24;17.38;;;7.65;;
74059;SDS011;62414;53.436;8.828;2022-11-11T04:46:08;21.20;;;9.10;;
74059;SDS011;62414;53.436;8.828;2022-11-11T04:48:52;21.03;;;8.60;;
74059;SDS011;62414;53.436;8.828;2022-11-11T04:51:36;22.70;;;8.40;;
74059;SDS011;62414;53.436;8.828;2022-11-11T04:54:22;18.60;;;8.45;;
74059;SDS011;62414;53.436;8.828;2022-11-11T04:57:05;19.98;;;8.13;;
74059;SDS011;62414;53.436;8.828;2022-11-11T04:59:49;19.13;;;8.45;;
74059;SDS011;62414;53.436;8.828;2022-11-11T05:02:33;20.50;;;8.30;;
74059;SDS011;62414;53.436;8.828;2022-11-11T05:05:17;20.70;;;8.82;;
74059;SDS011;62414;53.436;8.828;2022-11-11T05:08:01;19.05;;;8.88;;
74059;SDS011;62414;53.436;8.828;2022-11-11T05:10:47;20.75;;;9.30;;
74059;SDS011;62414;53.436;8.828;2022-11-11T05:13:30;22.13;;;9.15;;
74059;SDS011;62414;53.436;8.828;2022-11-11T05:16:15;20.37;;;9.13;;
74059;SDS011;62414;53.436;8.828;2022-11-11T05:19:02;24.08;;;9.30;;
74059;SDS011;62414;53.436;8.828;2022-11-11T05:21:47;21.20;;;9.13;;
74059;SDS011;62414;53.436;8.828;2022-11-11T05:24:32;25.80;;;10.15;;
74059;SDS011;62414;53.436;8.828;2022-11-11T05:27:17;21.13;;;9.30;;
74059;SDS011;62414;53.436;8.828;2022-11-11T05:30:01;21.73;;;9.20;;
74059;SDS011;62414;53.436;8.828;2022-11-11T05:32:46;21.20;;;9.77;;
74059;SDS011;62414;53.436;8.828;2022-11-11T05:35:30;21.05;;;9.52;;
74059;SDS011;62414;53.436;8.828;2022-11-11T05:38:14;20.00;;;9.13;;
74059;SDS011;62414;53.436;8.828;2022-11-11T05:40:58;25.42;;;10.00;;
74059;SDS011;62414;53.436;8.828;2022-11-11T05:43:43;25.00;;;9.97;;
74059;SDS011;62414;53.436;8.828;2022-11-11T05:46:27;25.90;;;10.27;;
74059;SDS011;62414;53.436;8.828;2022-11-11T05:49:11;23.63;;;10.43;;
74059;SDS011;62414;53.436;8.828;2022-11-11T05:51:55;23.08;;;10.02;;
74059;SDS011;62414;53.436;8.828;2022-11-11T05:54:39;22.70;;;10.52;;
74059;SDS011;62414;53.436;8.828;2022-11-11T05:57:23;26.80;;;10.20;;
74059;SDS011;62414;53.436;8.828;2022-11-11T06:00:09;24.65;;;10.98;;
74059;SDS011;62414;53.436;8.828;2022-11-11T06:03:00;27.48;;;10.77;;
74059;SDS011;62414;53.436;8.828;2022-11-11T06:05:45;25.70;;;11.30;;
74059;SDS011;62414;53.436;8.828;2022-11-11T06:08:29;24.13;;;11.25;;
74059;SDS011;62414;53.436;8.828;2022-11-11T06:11:13;26.07;;;11.47;;
74059;SDS011;62414;53.436;8.828;2022-11-11T06:13:56;23.38;;;10.82;;
74059;SDS011;62414;53.436;8.828;2022-11-11T06:16:42;26.25;;;11.77;;
74059;SDS011;62414;53.436;8.828;2022-11-11T06:19:26;26.60;;;11.55;;
74059;SDS011;62414;53.436;8.828;2022-11-11T06:22:10;27.05;;;12.43;;
74059;SDS011;62414;53.436;8.828;2022-11-11T06:24:53;24.87;;;11.83;;
74059;SDS011;62414;53.436;8.828;2022-11-11T06:27:37;28.10;;;12.20;;
74059;SDS011;62414;53.436;8.828;2022-11-11T06:30:21;28.60;;;12.50;;
74059;SDS011;62414;53.436;8.828;2022-11-11T06:33:07;30.05;;;12.88;;
74059;SDS011;62414;53.436;8.828;2022-11-11T06:35:51;27.73;;;12.77;;
74059;SDS011;62414;53.436;8.828;2022-11-11T06:38:36;30.13;;;12.63;;
74059;SDS011;62414;53.436;8.828;2022-11-11T06:41:19;30.60;;;12.70;;
74059;SDS011;62414;53.436;8.828;2022-11-11T06:44:03;36.72;;;13.30;;
74059;SDS011;62414;53.436;8.828;2022-11-11T06:46:47;28.67;;;12.68;;
74059;SDS011;62414;53.436;8.828;2022-11-11T06:49:33;29.40;;;12.98;;
74059;SDS011;62414;53.436;8.828;2022-11-11T06:52:16;31.03;;;12.87;;
74059;SDS011;62414;53.436;8.828;2022-11-11T06:55:00;31.02;;;12.80;;
74059;SDS011;62414;53.436;8.828;2022-11-11T06:57:44;32.22;;;13.23;;
74059;SDS011;62414;53.436;8.828;2022-11-11T07:00:28;30.33;;;13.00;;
74059;SDS011;62414;53.436;8.828;2022-11-11T07:03:13;31.88;;;13.77;;
74059;SDS011;62414;53.436;8.828;2022-11-11T07:06:00;31.37;;;13.27;;
74059;SDS011;62414;53.436;8.828;2022-11-11T07:08:44;30.58;;;13.52;;
74059;SDS011;62414;53.436;8.828;2022-11-11T07:11:28;34.88;;;13.68;;
74059;SDS011;62414;53.436;8.828;2022-11-11T07:14:12;31.63;;;13.55;;
74059;SDS011;62414;53.436;8.828;2022-11-11T07:16:56;31.67;;;13.20;;
74059;SDS011;62414;53.436;8.828;2022-11-11T07:19:40;30.73;;;13.53;;
74059;SDS011;62414;53.436;8.828;2022-11-11T07:22:25;32.10;;;13.40;;
74059;SDS011;62414;53.436;8.828;2022-11-11T07:25:09;30.95;;;14.00;;
74059;SDS011;62414;53.436;8.828;2022-11-11T07:27:53;35.55;;;14.23;;
74059;SDS011;62414;53.436;8.828;2022-11-11T07:30:37;32.90;;;13.77;;
74059;SDS011;62414;53.436;8.828;2022-11-11T07:33:21;32.00;;;12.97;;
74059;SDS011;62414;53.436;8.828;2022-11-11T07:36:05;30.88;;;14.38;;
74059;SDS011;62414;53.436;8.828;2022-11-11T07:38:50;30.75;;;14.05;;
74059;SDS011;62414;53.436;8.828;2022-11-11T07:41:34;29.60;;;13.63;;
74059;SDS011;62414;53.436;8.828;2022-11-11T07:44:17;34.78;;;13.95;;
74059;SDS011;62414;53.436;8.828;2022-11-11T07:47:01;31.03;;;13.50;;
74059;SDS011;62414;53.436;8.828;2022-11-11T07:49:45;33.83;;;14.10;;
74059;SDS011;62414;53.436;8.828;2022-11-11T07:52:29;31.67;;;13.68;;
74059;SDS011;62414;53.436;8.828;2022-11-11T07:55:15;32.65;;;14.13;;
74059;SDS011;62414;53.436;8.828;2022-11-11T07:57:59;35.10;;;14.00;;
74059;SDS011;62414;53.436;8.828;2022-11-11T08:00:43;34.37;;;13.47;;
74059;SDS011;62414;53.436;8.828;2022-11-11T08:03:27;33.88;;;14.80;;
74059;SDS011;62414;53.436;8.828;2022-11-11T08:06:11;32.08;;;14.18;;
74059;SDS011;62414;53.436;8.828;2022-11-11T08:08:55;34.78;;;14.05;;
74059;SDS011;62414;53.436;8.828;2022-11-11T08:11:40;28.40;;;12.82;;
74059;SDS011;62414;53.436;8.828;2022-11-11T08:14:24;30.93;;;13.80;;
74059;SDS011;62414;53.436;8.828;2022-11-11T08:17:07;32.20;;;13.27;;
74059;SDS011;62414;53.436;8.828;2022-11-11T08:19:51;32.67;;;14.48;;
74059;SDS011;62414;53.436;8.828;2022-11-11T08:22:36;30.80;;;14.40;;
74059;SDS011;62414;53.436;8.828;2022-11-11T08:25:20;35.90;;;14.27;;
74059;SDS011;62414;53.436;8.828;2022-11-11T08:28:06;27.67;;;12.90;;
74059;SDS011;62414;53.436;8.828;2022-11-11T08:30:49;29.25;;;13.00;;
74059;SDS011;62414;53.436;8.828;2022-11-11T08:33:33;30.30;;;13.38;;
74059;SDS011;62414;53.436;8.828;2022-11-11T08:36:17;34.45;;;13.32;;
74059;SDS011;62414;53.436;8.828;2022-11-11T08:39:01;29.42;;;13.00;;
74059;SDS011;62414;53.436;8.828;2022-11-11T08:41:45;29.93;;;13.03;;
74059;SDS011;62414;53.436;8.828;2022-11-11T08:44:30;29.60;;;12.65;;
74059;SDS011;62414;53.436;8.828;2022-11-11T08:47:14;30.33;;;13.40;;
74059;SDS011;62414;53.436;8.828;2022-11-11T08:49:58;28.35;;;12.38;;
74059;SDS011;62414;53.436;8.828;2022-11-11T08:52:44;30.17;;;12.10;;
74059;SDS011;62414;53.436;8.828;2022-11-11T08:55:29;24.90;;;11.27;;
74059;SDS011;62414;53.436;8.828;2022-11-11T08:58:13;29.30;;;11.60;;
74059;SDS011;62414;53.436;8.828;2022-11-11T09:00:59;23.85;;;11.50;;
74059;SDS011;62414;53.436;8.828;2022-11-11T09:03:43;31.10;;;11.90;;
74059;SDS011;62414;53.436;8.828;2022-11-11T09:06:27;27.52;;;12.02;;
74059;SDS011;62414;53.436;8.828;2022-11-11T09:09:11;26.30;;;11.77;;
74059;SDS011;62414;53.436;8.828;2022-11-11T09:11:56;27.10;;;11.25;;
74059;SDS011;62414;53.436;8.828;2022-11-11T09:14:40;30.38;;;12.10;;
74059;SDS011;62414;53.436;8.828;2022-11-11T09:17:25;30.90;;;12.95;;
74059;SDS011;62414;53.436;8.828;2022-11-11T09:20:09;30.70;;;12.63;;
74059;SDS011;62414;53.436;8.828;2022-11-11T09:22:54;25.57;;;12.00;;
74059;SDS011;62414;53.436;8.828;2022-11-11T09:25:38;28.27;;;12.10;;
74059;SDS011;62414;53.436;8.828;2022-11-11T09:28:22;27.27;;;12.90;;
74059;SDS011;62414;53.436;8.828;2022-11-11T09:31:06;30.67;;;12.40;;
74059;SDS011;62414;53.436;8.828;2022-11-11T09:33:52;30.08;;;12.73;;
74059;SDS011;62414;53.436;8.828;2022-11-11T09:36:36;25.20;;;12.13;;
74059;SDS011;62414;53.436;8.828;2022-11-11T09:39:20;31.75;;;12.82;;
74059;SDS011;62414;53.436;8.828;2022-11-11T09:42:06;27.92;;;12.10;;
74059;SDS011;62414;53.436;8.828;2022-11-11T09:45:06;26.90;;;11.30;;
74059;SDS011;62414;53.436;8.828;2022-11-11T09:47:58;27.67;;;12.48;;
74059;SDS011;62414;53.436;8.828;2022-11-11T09:50:51;28.50;;;13.00;;
74059;SDS011;62414;53.436;8.828;2022-11-11T09:53:39;26.20;;;12.00;;
74059;SDS011;62414;53.436;8.828;2022-11-11T09:56:26;31.52;;;12.38;;
74059;SDS011;62414;53.436;8.828;2022-11-11T09:59:11;29.60;;;12.13;;
74059;SDS011;62414;53.436;8.828;2022-11-11T10:01:59;26.20;;;12.15;;
74059;SDS011;62414;53.436;8.828;2022-11-11T10:04:46;30.70;;;11.97;;
74059;SDS011;62414;53.436;8.828;2022-11-11T10:07:37;26.30;;;12.10;;
74059;SDS011;62414;53.436;8.828;2022-11-11T10:10:29;25.58;;;12.40;;
74059;SDS011;62414;53.436;8.828;2022-11-11T10:13:23;26.08;;;11.93;;
74059;SDS011;62414;53.436;8.828;2022-11-11T10:16:13;27.13;;;11.52;;
74059;SDS011;62414;53.436;8.828;2022-11-11T10:19:09;27.03;;;12.03;;
74059;SDS011;62414;53.436;8.828;2022-11-11T10:22:05;28.63;;;11.63;;
74059;SDS011;62414;53.436;8.828;2022-11-11T10:28:03;26.20;;;11.88;;
74059;SDS011;62414;53.436;8.828;2022-11-11T10:30:47;29.13;;;11.95;;
74059;SDS011;62414;53.436;8.828;2022-11-11T10:33:34;30.63;;;13.17;;
74059;SDS011;62414;53.436;8.828;2022-11-11T10:36:27;27.52;;;12.85;;
74059;SDS011;62414;53.436;8.828;2022-11-11T10:39:14;31.05;;;12.82;;
74059;SDS011;62414;53.436;8.828;2022-11-11T10:42:08;31.40;;;12.75;;
74059;SDS011;62414;53.436;8.828;2022-11-11T10:44:58;27.63;;;12.02;;
74059;SDS011;62414;53.436;8.828;2022-11-11T10:47:44;31.47;;;13.73;;
74059;SDS011;62414;53.436;8.828;2022-11-11T10:50:35;29.35;;;12.60;;
74059;SDS011;62414;53.436;8.828;2022-11-11T10:53:24;31.35;;;13.02;;
74059;SDS011;62414;53.436;8.828;2022-11-11T10:56:18;32.10;;;13.52;;
74059;SDS011;62414;53.436;8.828;2022-11-11T10:59:10;27.58;;;12.82;;
74059;SDS011;62414;53.436;8.828;2022-11-11T11:02:00;28.50;;;12.73;;
74059;SDS011;62414;53.436;8.828;2022-11-11T11:04:51;28.70;;;12.77;;
74059;SDS011;62414;53.436;8.828;2022-11-11T11:07:39;30.50;;;12.75;;
74059;SDS011;62414;53.436;8.828;2022-11-11T11:10:28;29.83;;;12.13;;
74059;SDS011;62414;53.436;8.828;2022-11-11T11:13:16;28.10;;;12.18;;
74059;SDS011;62414;53.436;8.828;2022-11-11T11:16:12;30.80;;;12.60;;
74059;SDS011;62414;53.436;8.828;2022-11-11T11:19:18;30.40;;;13.13;;
74059;SDS011;62414;53.436;8.828;2022-11-11T11:22:03;35.63;;;12.95;;
74059;SDS011;62414;53.436;8.828;2022-11-11T11:24:47;29.70;;;12.75;;
74059;SDS011;62414;53.436;8.828;2022-11-11T11:27:31;32.10;;;13.10;;
74059;SDS011;62414;53.436;8.828;2022-11-11T11:30:16;29.83;;;12.80;;
74059;SDS011;62414;53.436;8.828;2022-11-11T11:33:04;30.40;;;12.45;;
74059;SDS011;62414;53.436;8.828;2022-11-11T11:35:49;30.48;;;13.25;;
74059;SDS011;62414;53.436;8.828;2022-11-11T11:38:38;30.38;;;12.63;;
74059;SDS011;62414;53.436;8.828;2022-11-11T11:41:35;33.15;;;14.30;;
74059;SDS011;62414;53.436;8.828;2022-11-11T11:44:24;36.17;;;13.63;;
74059;SDS011;62414;53.436;8.828;2022-11-11T11:47:13;30.50;;;12.77;;
74059;SDS011;62414;53.436;8.828;2022-11-11T11:50:10;31.52;;;13.35;;
74059;SDS011;62414;53.436;8.828;2022-11-11T11:53:08;32.30;;;13.32;;
74059;SDS011;62414;53.436;8.828;2022-11-11T11:56:17;30.80;;;13.77;;
74059;SDS011;62414;53.436;8.828;2022-11-11T11:59:08;30.93;;;13.17;;
74059;SDS011;62414;53.436;8.828;2022-11-11T12:01:58;35.00;;;13.25;;
74059;SDS011;62414;53.436;8.828;2022-11-11T12:04:57;31.05;;;12.45;;
74059;SDS011;62414;53.436;8.828;2022-11-11T12:07:57;29.73;;;13.27;;
74059;SDS011;62414;53.436;8.828;2022-11-11T12:10:52;32.45;;;13.25;;
74059;SDS011;62414;53.436;8.828;2022-11-11T12:13:44;33.13;;;12.83;;
74059;SDS011;62414;53.436;8.828;2022-11-11T12:16:38;29.13;;;12.45;;
74059;SDS011;62414;53.436;8.828;2022-11-11T12:19:31;27.63;;;12.07;;
74059;SDS011;62414;53.436;8.828;2022-11-11T12:22:24;28.42;;;12.73;;
74059;SDS011;62414;53.436;8.828;2022-11-11T12:25:17;27.65;;;12.50;;
74059;SDS011;62414;53.436;8.828;2022-11-11T12:28:08;26.53;;;11.77;;
74059;SDS011;62414;53.436;8.828;2022-11-11T12:31:04;28.38;;;11.50;;
74059;SDS011;62414;53.436;8.828;2022-11-11T12:34:05;26.45;;;10.88;;
74059;SDS011;62414;53.436;8.828;2022-11-11T12:37:00;25.38;;;11.57;;
74059;SDS011;62414;53.436;8.828;2022-11-11T12:39:57;25.45;;;11.13;;
74059;SDS011;62414;53.436;8.828;2022-11-11T12:43:03;28.67;;;11.60;;
74059;SDS011;62414;53.436;8.828;2022-11-11T12:45:56;24.52;;;10.60;;
74059;SDS011;62414;53.436;8.828;2022-11-11T12:48:50;27.42;;;12.02;;
74059;SDS011;62414;53.436;8.828;2022-11-11T12:51:45;27.02;;;11.45;;
74059;SDS011;62414;53.436;8.828;2022-11-11T12:54:39;22.85;;;10.80;;
74059;SDS011;62414;53.436;8.828;2022-11-11T12:57:33;20.67;;;9.77;;
74059;SDS011;62414;53.436;8.828;2022-11-11T13:00:26;21.38;;;9.63;;
74059;SDS011;62414;53.436;8.828;2022-11-11T13:03:24;22.70;;;9.85;;
74059;SDS011;62414;53.436;8.828;2022-11-11T13:06:22;19.98;;;9.43;;
74059;SDS011;62414;53.436;8.828;2022-11-11T13:09:24;22.27;;;9.13;;
74059;SDS011;62414;53.436;8.828;2022-11-11T13:12:17;19.80;;;9.50;;
74059;SDS011;62414;53.436;8.828;2022-11-11T13:15:10;19.95;;;9.75;;
74059;SDS011;62414;53.436;8.828;2022-11-11T13:17:59;20.80;;;8.90;;
74059;SDS011;62414;53.436;8.828;2022-11-11T13:20:45;20.95;;;9.20;;
74059;SDS011;62414;53.436;8.828;2022-11-11T13:23:36;19.05;;;8.95;;
74059;SDS011;62414;53.436;8.828;2022-11-11T13:26:25;21.17;;;9.00;;
74059;SDS011;62414;53.436;8.828;2022-11-11T13:29:43;19.88;;;9.00;;
74059;SDS011;62414;53.436;8.828;2022-11-11T13:32:39;19.42;;;10.80;;
74059;SDS011;62414;53.436;8.828;2022-11-11T13:35:29;22.17;;;9.93;;
74059;SDS011;62414;53.436;8.828;2022-11-11T13:38:24;20.08;;;9.43;;
74059;SDS011;62414;53.436;8.828;2022-11-11T13:41:11;20.50;;;10.53;;
74059;SDS011;62414;53.436;8.828;2022-11-11T13:44:04;18.02;;;9.40;;
74059;SDS011;62414;53.436;8.828;2022-11-11T13:46:52;22.42;;;11.95;;
74059;SDS011;62414;53.436;8.828;2022-11-11T13:49:45;18.77;;;10.45;;
74059;SDS011;62414;53.436;8.828;2022-11-11T13:52:38;19.90;;;8.75;;
74059;SDS011;62414;53.436;8.828;2022-11-11T13:55:35;22.13;;;9.17;;
74059;SDS011;62414;53.436;8.828;2022-11-11T13:58:23;22.30;;;9.60;;
74059;SDS011;62414;53.436;8.828;2022-11-11T14:01:09;18.30;;;8.95;;
74059;SDS011;62414;53.436;8.828;2022-11-11T14:03:58;21.20;;;9.88;;
74059;SDS011;62414;53.436;8.828;2022-11-11T14:06:52;19.30;;;8.73;;
74059;SDS011;62414;53.436;8.828;2022-11-11T14:09:54;17.83;;;8.50;;
74059;SDS011;62414;53.436;8.828;2022-11-11T14:12:40;17.90;;;8.88;;
74059;SDS011;62414;53.436;8.828;2022-11-11T14:15:36;16.67;;;8.75;;
74059;SDS011;62414;53.436;8.828;2022-11-11T14:18:37;19.10;;;9.40;;
74059;SDS011;62414;53.436;8.828;2022-11-11T14:24:37;18.00;;;8.50;;
74059;SDS011;62414;53.436;8.828;2022-11-11T14:27:24;18.08;;;9.27;;
74059;SDS011;62414;53.436;8.828;2022-11-11T14:30:11;19.08;;;9.07;;
74059;SDS011;62414;53.436;8.828;2022-11-11T14:33:12;20.02;;;9.00;;
74059;SDS011;62414;53.436;8.828;2022-11-11T14:36:05;19.90;;;9.13;;
74059;SDS011;62414;53.436;8.828;2022-11-11T14:39:02;18.70;;;9.30;;
74059;SDS011;62414;53.436;8.828;2022-11-11T14:41:52;20.90;;;10.20;;
74059;SDS011;62414;53.436;8.828;2022-11-11T14:44:39;22.30;;;10.00;;
74059;SDS011;62414;53.436;8.828;2022-11-11T14:47:30;21.98;;;10.20;;
74059;SDS011;62414;53.436;8.828;2022-11-11T14:53:27;21.10;;;9.60;;
74059;SDS011;62414;53.436;8.828;2022-11-11T14:56:18;20.80;;;10.07;;
74059;SDS011;62414;53.436;8.828;2022-11-11T14:59:04;18.40;;;9.05;;
74059;SDS011;62414;53.436;8.828;2022-11-11T15:01:53;21.02;;;9.30;;
74059;SDS011;62414;53.436;8.828;2022-11-11T15:04:39;21.05;;;9.65;;
74059;SDS011;62414;53.436;8.828;2022-11-11T15:07:25;19.70;;;9.30;;
74059;SDS011;62414;53.436;8.828;2022-11-11T15:10:26;22.08;;;10.20;;
74059;SDS011;62414;53.436;8.828;2022-11-11T15:13:22;18.38;;;9.18;;
74059;SDS011;62414;53.436;8.828;2022-11-11T15:16:21;18.90;;;9.75;;
74059;SDS011;62414;53.436;8.828;2022-11-11T15:19:22;22.08;;;10.20;;
74059;SDS011;62414;53.436;8.828;2022-11-11T15:22:20;23.33;;;10.33;;
74059;SDS011;62414;53.436;8.828;2022-11-11T15:25:16;25.48;;;11.25;;
74059;SDS011;62414;53.436;8.828;2022-11-11T15:28:15;36.13;;;13.90;;
74059;SDS011;62414;53.436;8.828;2022-11-11T15:31:17;28.00;;;12.07;;
74059;SDS011;62414;53.436;8.828;2022-11-11T15:34:10;30.17;;;12.32;;
74059;SDS011;62414;53.436;8.828;2022-11-11T15:37:08;25.70;;;10.93;;
74059;SDS011;62414;53.436;8.828;2022-11-11T15:39:55;55.08;;;20.08;;
74059;SDS011;62414;53.436;8.828;2022-11-11T15:42:42;51.53;;;21.05;;
74059;SDS011;62414;53.436;8.828;2022-11-11T15:45:27;42.33;;;19.10;;
74059;SDS011;62414;53.436;8.828;2022-11-11T15:48:16;34.28;;;15.38;;
74059;SDS011;62414;53.436;8.828;2022-11-11T15:51:13;47.27;;;19.60;;
74059;SDS011;62414;53.436;8.828;2022-11-11T15:57:15;38.40;;;16.90;;
74059;SDS011;62414;53.436;8.828;2022-11-11T16:00:23;36.60;;;16.30;;
74059;SDS011;62414;53.436;8.828;2022-11-11T16:03:12;46.05;;;22.15;;
74059;SDS011;62414;53.436;8.828;2022-11-11T16:05:58;46.10;;;23.80;;
74059;SDS011;62414;53.436;8.828;2022-11-11T16:08:43;39.20;;;20.23;;
74059;SDS011;62414;53.436;8.828;2022-11-11T16:11:31;66.30;;;30.73;;
74059;SDS011;62414;53.436;8.828;2022-11-11T16:14:20;45.50;;;23.20;;
74059;SDS011;62414;53.436;8.828;2022-11-11T16:17:08;31.58;;;16.30;;
74059;SDS011;62414;53.436;8.828;2022-11-11T16:19:53;46.70;;;33.27;;
74059;SDS011;62414;53.436;8.828;2022-11-11T16:22:38;46.47;;;32.20;;
74059;SDS011;62414;53.436;8.828;2022-11-11T16:25:23;37.47;;;24.50;;
74059;SDS011;62414;53.436;8.828;2022-11-11T16:28:09;38.25;;;20.70;;
74059;SDS011;62414;53.436;8.828;2022-11-11T16:30:55;36.75;;;19.50;;
74059;SDS011;62414;53.436;8.828;2022-11-11T16:33:39;31.53;;;17.10;;
74059;SDS011;62414;53.436;8.828;2022-11-11T16:36:22;31.55;;;16.73;;
74059;SDS011;62414;53.436;8.828;2022-11-11T16:39:13;35.88;;;17.85;;